sensor_id;sensor_type;location;lat;lon;timestamp;P1;durP1;ratioP1;P2;durP2;ratioP2
45940;SDS011;31858;46.008;8.978;2022-11-20T00:05:17;0.50;;;0.40;;
45940;SDS011;31858;46.008;8.978;2022-11-20T00:15:19;0.68;;;0.60;;
45940;SDS011;31858;46.008;8.978;2022-11-20T00:25:22;3.70;;;0.63;;
45940;SDS011;31858;46.008;8.978;2022-11-20T00:35:23;0.70;;;0.32;;
45940;SDS011;31858;46.008;8.978;2022-11-20T00:45:26;0.30;;;0.30;;
45940;SDS011;31858;46.008;8.978;2022-11-20T00:55:28;0.30;;;0.30;;
45940;SDS011;31858;46.008;8.978;2022-11-20T01:05:34;0.20;;;0.20;;
45940;SDS011;31858;46.008;8.978;2022-11-20T01:15:36;0.40;;;0.40;;
45940;SDS011;31858;46.008;8.978;2022-11-20T01:25:39;0.40;;;0.20;;
45940;SDS011;31858;46.008;8.978;2022-11-20T01:35:41;0.35;;;0.22;;
45940;SDS011;31858;46.008;8.978;2022-11-20T01:46:00;0.40;;;0.40;;
45940;SDS011;31858;46.008;8.978;2022-11-20T01:56:05;1.05;;;0.35;;
45940;SDS011;31858;46.008;8.978;2022-11-20T02:06:11;0.13;;;0.13;;
45940;SDS011;31858;46.008;8.978;2022-11-20T02:16:20;0.95;;;0.40;;
45940;SDS011;31858;46.008;8.978;2022-11-20T02:26:25;0.60;;;0.20;;
45940;SDS011;31858;46.008;8.978;2022-11-20T02:36:28;2.00;;;0.38;;
45940;SDS011;31858;46.008;8.978;2022-11-20T02:46:34;0.20;;;0.20;;
45940;SDS011;31858;46.008;8.978;2022-11-20T02:56:37;0.20;;;0.20;;
45940;SDS011;31858;46.008;8.978;2022-11-20T03:06:40;0.22;;;0.22;;
45940;SDS011;31858;46.008;8.978;2022-11-20T03:16:41;0.30;;;0.30;;
45940;SDS011;31858;46.008;8.978;2022-11-20T03:26:44;0.75;;;0.50;;
45940;SDS011;31858;46.008;8.978;2022-11-20T03:36:46;0.50;;;0.30;;
45940;SDS011;31858;46.008;8.978;2022-11-20T03:46:49;0.30;;;0.30;;
45940;SDS011;31858;46.008;8.978;2022-11-20T03:56:50;0.30;;;0.30;;
45940;SDS011;31858;46.008;8.978;2022-11-20T04:06:53;0.20;;;0.20;;
45940;SDS011;31858;46.008;8.978;2022-11-20T04:16:55;1.45;;;0.43;;
45940;SDS011;31858;46.008;8.978;2022-11-20T04:26:58;0.38;;;0.30;;
45940;SDS011;31858;46.008;8.978;2022-11-20T04:36:59;0.40;;;0.30;;
45940;SDS011;31858;46.008;8.978;2022-11-20T04:47:02;0.40;;;0.40;;
45940;SDS011;31858;46.008;8.978;2022-11-20T04:57:04;0.40;;;0.38;;
45940;SDS011;31858;46.008;8.978;2022-11-20T05:07:08;0.93;;;0.38;;
45940;SDS011;31858;46.008;8.978;2022-11-20T05:17:10;0.60;;;0.60;;
45940;SDS011;31858;46.008;8.978;2022-11-20T05:27:13;0.45;;;0.43;;
45940;SDS011;31858;46.008;8.978;2022-11-20T05:37:15;0.40;;;0.40;;
45940;SDS011;31858;46.008;8.978;2022-11-20T05:47:18;0.55;;;0.50;;
45940;SDS011;31858;46.008;8.978;2022-11-20T05:57:19;0.45;;;0.45;;
45940;SDS011;31858;46.008;8.978;2022-11-20T06:07:22;0.43;;;0.30;;
45940;SDS011;31858;46.008;8.978;2022-11-20T06:17:24;0.25;;;0.25;;
45940;SDS011;31858;46.008;8.978;2022-11-20T06:27:28;0.35;;;0.35;;
45940;SDS011;31858;46.008;8.978;2022-11-20T06:37:29;2.72;;;0.40;;
45940;SDS011;31858;46.008;8.978;2022-11-20T06:47:32;0.40;;;0.40;;
45940;SDS011;31858;46.008;8.978;2022-11-20T06:57:34;0.60;;;0.40;;
45940;SDS011;31858;46.008;8.978;2022-11-20T07:07:37;0.30;;;0.30;;
45940;SDS011;31858;46.008;8.978;2022-11-20T07:17:38;0.45;;;0.45;;
45940;SDS011;31858;46.008;8.978;2022-11-20T07:27:41;0.40;;;0.40;;
45940;SDS011;31858;46.008;8.978;2022-11-20T07:37:43;0.52;;;0.52;;
45940;SDS011;31858;46.008;8.978;2022-11-20T07:47:47;0.30;;;0.30;;
45940;SDS011;31858;46.008;8.978;2022-11-20T07:57:53;0.40;;;0.40;;
45940;SDS011;31858;46.008;8.978;2022-11-20T08:07:56;0.30;;;0.30;;
45940;SDS011;31858;46.008;8.978;2022-11-20T08:17:59;0.40;;;0.40;;
45940;SDS011;31858;46.008;8.978;2022-11-20T08:28:04;0.25;;;0.25;;
45940;SDS011;31858;46.008;8.978;2022-11-20T08:38:06;1.75;;;0.55;;
45940;SDS011;31858;46.008;8.978;2022-11-20T08:48:09;0.47;;;0.47;;
45940;SDS011;31858;46.008;8.978;2022-11-20T08:58:11;2.28;;;0.63;;
45940;SDS011;31858;46.008;8.978;2022-11-20T09:08:14;0.40;;;0.40;;
45940;SDS011;31858;46.008;8.978;2022-11-20T09:18:15;0.95;;;0.55;;
45940;SDS011;31858;46.008;8.978;2022-11-20T09:28:18;0.40;;;0.40;;
45940;SDS011;31858;46.008;8.978;2022-11-20T09:38:20;0.75;;;0.75;;
45940;SDS011;31858;46.008;8.978;2022-11-20T09:48:28;0.68;;;0.50;;
45940;SDS011;31858;46.008;8.978;2022-11-20T09:58:42;0.90;;;0.85;;
45940;SDS011;31858;46.008;8.978;2022-11-20T10:08:48;0.35;;;0.30;;
45940;SDS011;31858;46.008;8.978;2022-11-20T10:19:02;0.55;;;0.55;;
45940;SDS011;31858;46.008;8.978;2022-11-20T10:29:17;0.57;;;0.57;;
45940;SDS011;31858;46.008;8.978;2022-11-20T10:39:22;0.75;;;0.75;;
45940;SDS011;31858;46.008;8.978;2022-11-20T10:49:31;0.90;;;0.90;;
45940;SDS011;31858;46.008;8.978;2022-11-20T10:59:50;0.35;;;0.35;;
45940;SDS011;31858;46.008;8.978;2022-11-20T11:10:05;0.90;;;0.80;;
45940;SDS011;31858;46.008;8.978;2022-11-20T11:20:17;0.85;;;0.70;;
45940;SDS011;31858;46.008;8.978;2022-11-20T11:30:22;1.35;;;1.13;;
45940;SDS011;31858;46.008;8.978;2022-11-20T11:40:24;2.30;;;1.70;;
45940;SDS011;31858;46.008;8.978;2022-11-20T11:50:31;1.90;;;0.98;;
45940;SDS011;31858;46.008;8.978;2022-11-20T12:00:32;3.03;;;1.55;;
45940;SDS011;31858;46.008;8.978;2022-11-20T12:10:40;0.63;;;0.52;;
45940;SDS011;31858;46.008;8.978;2022-11-20T12:31:01;0.80;;;0.80;;
45940;SDS011;31858;46.008;8.978;2022-11-20T12:41:18;0.60;;;0.60;;
45940;SDS011;31858;46.008;8.978;2022-11-20T12:52:05;0.50;;;0.50;;
45940;SDS011;31858;46.008;8.978;2022-11-20T13:02:19;0.40;;;0.40;;
45940;SDS011;31858;46.008;8.978;2022-11-20T13:12:30;0.60;;;0.50;;
45940;SDS011;31858;46.008;8.978;2022-11-20T13:22:42;2.17;;;0.45;;
45940;SDS011;31858;46.008;8.978;2022-11-20T13:32:52;0.30;;;0.30;;
45940;SDS011;31858;46.008;8.978;2022-11-20T13:42:56;0.40;;;0.30;;
45940;SDS011;31858;46.008;8.978;2022-11-20T13:53:07;0.30;;;0.30;;
45940;SDS011;31858;46.008;8.978;2022-11-20T14:03:22;0.30;;;0.30;;
45940;SDS011;31858;46.008;8.978;2022-11-20T14:13:27;0.30;;;0.30;;
45940;SDS011;31858;46.008;8.978;2022-11-20T14:23:29;0.30;;;0.30;;
45940;SDS011;31858;46.008;8.978;2022-11-20T14:33:32;0.32;;;0.32;;
45940;SDS011;31858;46.008;8.978;2022-11-20T14:43:35;0.73;;;0.50;;
45940;SDS011;31858;46.008;8.978;2022-11-20T14:53:39;0.50;;;0.50;;
45940;SDS011;31858;46.008;8.978;2022-11-20T15:03:41;0.57;;;0.57;;
45940;SDS011;31858;46.008;8.978;2022-11-20T15:13:44;2.13;;;1.85;;
45940;SDS011;31858;46.008;8.978;2022-11-20T15:23:46;0.70;;;0.70;;
45940;SDS011;31858;46.008;8.978;2022-11-20T15:33:49;0.70;;;0.60;;
45940;SDS011;31858;46.008;8.978;2022-11-20T15:43:51;2.75;;;1.70;;
45940;SDS011;31858;46.008;8.978;2022-11-20T15:53:54;3.03;;;2.08;;
45940;SDS011;31858;46.008;8.978;2022-11-20T16:03:57;2.20;;;2.00;;
45940;SDS011;31858;46.008;8.978;2022-11-20T16:13:59;4.25;;;2.63;;
45940;SDS011;31858;46.008;8.978;2022-11-20T16:24:19;3.23;;;2.50;;
45940;SDS011;31858;46.008;8.978;2022-11-20T16:34:22;4.25;;;2.90;;
45940;SDS011;31858;46.008;8.978;2022-11-20T16:44:23;3.80;;;3.33;;
45940;SDS011;31858;46.008;8.978;2022-11-20T16:54:26;4.75;;;3.50;;
45940;SDS011;31858;46.008;8.978;2022-11-20T17:04:28;4.40;;;3.67;;
45940;SDS011;31858;46.008;8.978;2022-11-20T17:14:31;3.03;;;2.35;;
45940;SDS011;31858;46.008;8.978;2022-11-20T17:24:32;3.42;;;2.60;;
45940;SDS011;31858;46.008;8.978;2022-11-20T17:34:35;3.38;;;2.60;;
45940;SDS011;31858;46.008;8.978;2022-11-20T17:44:37;3.75;;;3.10;;
45940;SDS011;31858;46.008;8.978;2022-11-20T17:54:42;3.53;;;2.80;;
45940;SDS011;31858;46.008;8.978;2022-11-20T18:04:43;3.22;;;2.80;;
45940;SDS011;31858;46.008;8.978;2022-11-20T18:14:47;4.05;;;3.15;;
45940;SDS011;31858;46.008;8.978;2022-11-20T18:24:48;5.75;;;2.95;;
45940;SDS011;31858;46.008;8.978;2022-11-20T18:34:51;3.63;;;2.88;;
45940;SDS011;31858;46.008;8.978;2022-11-20T18:44:53;4.68;;;3.10;;
45940;SDS011;31858;46.008;8.978;2022-11-20T18:54:56;3.60;;;2.90;;
45940;SDS011;31858;46.008;8.978;2022-11-20T19:04:58;4.93;;;3.30;;
45940;SDS011;31858;46.008;8.978;2022-11-20T19:15:00;3.30;;;2.70;;
45940;SDS011;31858;46.008;8.978;2022-11-20T19:25:02;3.08;;;2.60;;
45940;SDS011;31858;46.008;8.978;2022-11-20T19:35:06;4.60;;;3.17;;
45940;SDS011;31858;46.008;8.978;2022-11-20T19:45:08;2.80;;;2.30;;
45940;SDS011;31858;46.008;8.978;2022-11-20T19:55:11;4.50;;;2.90;;
45940;SDS011;31858;46.008;8.978;2022-11-20T20:05:13;3.65;;;2.42;;
45940;SDS011;31858;46.008;8.978;2022-11-20T20:15:16;3.20;;;2.45;;
45940;SDS011;31858;46.008;8.978;2022-11-20T20:25:18;4.50;;;2.63;;
45940;SDS011;31858;46.008;8.978;2022-11-20T20:35:21;4.93;;;2.20;;
45940;SDS011;31858;46.008;8.978;2022-11-20T20:45:22;2.97;;;2.40;;
45940;SDS011;31858;46.008;8.978;2022-11-20T20:55:25;3.33;;;2.25;;
45940;SDS011;31858;46.008;8.978;2022-11-20T21:05:27;2.70;;;2.50;;
45940;SDS011;31858;46.008;8.978;2022-11-20T21:15:29;3.35;;;2.45;;
45940;SDS011;31858;46.008;8.978;2022-11-20T21:25:34;4.03;;;2.92;;
45940;SDS011;31858;46.008;8.978;2022-11-20T21:35:38;3.03;;;2.55;;
45940;SDS011;31858;46.008;8.978;2022-11-20T21:45:40;5.28;;;2.47;;
45940;SDS011;31858;46.008;8.978;2022-11-20T21:55:43;2.20;;;2.00;;
45940;SDS011;31858;46.008;8.978;2022-11-20T22:05:53;3.75;;;2.20;;
45940;SDS011;31858;46.008;8.978;2022-11-20T22:16:01;2.20;;;2.00;;
45940;SDS011;31858;46.008;8.978;2022-11-20T22:26:03;3.70;;;2.10;;
45940;SDS011;31858;46.008;8.978;2022-11-20T22:36:07;2.03;;;1.60;;
45940;SDS011;31858;46.008;8.978;2022-11-20T22:46:11;3.63;;;1.60;;
45940;SDS011;31858;46.008;8.978;2022-11-20T22:56:16;1.83;;;1.50;;
45940;SDS011;31858;46.008;8.978;2022-11-20T23:06:18;3.35;;;2.55;;
45940;SDS011;31858;46.008;8.978;2022-11-20T23:16:22;1.90;;;1.70;;
45940;SDS011;31858;46.008;8.978;2022-11-20T23:26:26;1.48;;;1.30;;
45940;SDS011;31858;46.008;8.978;2022-11-20T23:36:30;1.50;;;1.40;;
45940;SDS011;31858;46.008;8.978;2022-11-20T23:46:32;1.65;;;0.98;;
45940;SDS011;31858;46.008;8.978;2022-11-20T23:56:35;1.40;;;1.30;;
